Time;durP1;ratioP1;P1;durP2;ratioP2;P2;SDS_P1;SDS_P2;PMS_P1;PMS_P2;Temp;Humidity;BMP_temperature;BMP_pressure;BME280_temperature;BME280_humidity;BME280_pressure;Samples;Min_cycle;Max_cycle;Signal;HPM_P1;HPM_P2
2021/06/10 00:02:27;;;;;;;40.90;36.47;;;21.20;83.20;;;;;;5161435;27;20214;-66
2021/06/10 00:04:55;;;;;;;45.50;40.90;;;21.10;83.70;;;;;;5166606;27;20564;-66
2021/06/10 00:07:22;;;;;;;44.17;39.70;;;21.10;83.20;;;;;;5166533;27;20225;-66
2021/06/10 00:09:49;;;;;;;43.23;38.83;;;21.00;83.50;;;;;;5157719;27;20210;-66
2021/06/10 00:12:19;;;;;;;44.47;39.97;;;21.00;83.60;;;;;;5165877;27;20214;-66
2021/06/10 00:14:47;;;;;;;42.90;38.93;;;20.90;83.70;;;;;;5162118;27;20535;-66
2021/06/10 00:17:16;;;;;;;44.57;39.87;;;20.90;83.70;;;;;;5165908;27;20231;-66
2021/06/10 00:19:44;;;;;;;44.67;40.27;;;20.80;83.80;;;;;;5165749;27;20287;-66
2021/06/10 00:22:11;;;;;;;46.03;41.33;;;20.80;83.90;;;;;;5169498;27;20217;-66
2021/06/10 00:24:38;;;;;;;44.53;39.77;;;20.70;84.10;;;;;;5166434;27;20693;-66
2021/06/10 00:27:05;;;;;;;48.13;37.60;;;20.70;84.10;;;;;;5165691;27;20206;-66
2021/06/10 00:29:32;;;;;;;44.03;39.60;;;20.70;84.10;;;;;;5167135;27;20207;-66
2021/06/10 00:31:59;;;;;;;44.57;39.93;;;20.70;84.00;;;;;;5167993;27;20229;-66
2021/06/10 00:34:27;;;;;;;40.63;36.53;;;20.70;84.00;;;;;;5152123;27;20229;-66
2021/06/10 00:36:56;;;;;;;44.43;40.03;;;20.60;83.90;;;;;;5168933;27;20225;-66
2021/06/10 00:39:23;;;;;;;42.80;38.67;;;20.60;84.10;;;;;;5162863;27;20230;-66
2021/06/10 00:41:50;;;;;;;47.97;41.50;;;20.60;84.30;;;;;;5166510;27;20244;-66
2021/06/10 00:44:17;;;;;;;43.27;38.80;;;20.60;84.40;;;;;;5164161;27;20202;-66
2021/06/10 00:46:44;;;;;;;48.80;38.93;;;20.50;84.30;;;;;;5164488;27;20254;-66
2021/06/10 00:49:11;;;;;;;47.83;41.23;;;20.50;84.40;;;;;;5168679;27;20207;-66
2021/06/10 00:51:39;;;;;;;45.47;40.70;;;20.40;85.20;;;;;;5165882;27;20239;-66
2021/06/10 00:54:07;;;;;;;45.93;41.20;;;20.40;84.80;;;;;;5162037;27;20215;-66
2021/06/10 00:56:34;;;;;;;45.20;40.50;;;20.40;85.00;;;;;;5168811;27;20207;-66
2021/06/10 00:59:02;;;;;;;46.53;41.70;;;20.40;85.20;;;;;;5167487;27;20235;-66
2021/06/10 01:01:29;;;;;;;47.27;42.43;;;20.40;85.30;;;;;;5163583;27;20604;-66
2021/06/10 01:03:56;;;;;;;46.07;41.57;;;20.40;85.30;;;;;;5167907;27;20531;-66
2021/06/10 01:06:35;;;;;;;46.67;42.03;;;20.30;85.40;;;;;;5165476;27;20215;-66
2021/06/10 01:09:02;;;;;;;42.67;38.17;;;20.40;85.80;;;;;;5166933;27;20226;-66
2021/06/10 01:11:38;;;;;;;40.87;36.40;;;20.30;85.70;;;;;;5168465;27;20603;-66
2021/06/10 01:14:34;;;;;;;41.63;37.53;;;20.30;85.40;;;;;;5162846;27;20536;-66
2021/06/10 01:17:03;;;;;;;44.67;40.23;;;20.30;85.40;;;;;;5159566;27;20203;-66
2021/06/10 01:19:40;;;;;;;41.80;37.43;;;20.30;85.40;;;;;;5164270;27;20241;-66
2021/06/10 01:22:25;;;;;;;41.63;37.30;;;20.40;85.30;;;;;;5161668;27;20628;-66
2021/06/10 01:25:30;;;;;;;46.97;40.07;;;20.30;85.20;;;;;;5165321;27;20218;-66
2021/06/10 01:28:11;;;;;;;43.57;39.13;;;20.40;85.30;;;;;;5164721;27;20217;-66
2021/06/10 01:30:51;;;;;;;43.33;38.60;;;20.30;85.30;;;;;;5161314;27;20220;-66
2021/06/10 01:33:23;;;;;;;42.53;38.30;;;20.30;85.30;;;;;;5164740;27;20632;-66
2021/06/10 01:35:58;;;;;;;44.20;39.47;;;20.20;85.20;;;;;;5161197;27;20222;-66
2021/06/10 01:38:26;;;;;;;44.90;40.60;;;20.10;85.20;;;;;;5166805;27;20214;-66
2021/06/10 01:40:55;;;;;;;48.47;42.13;;;20.10;85.40;;;;;;5167440;27;20218;-66
2021/06/10 01:43:29;;;;;;;44.43;39.67;;;20.10;85.40;;;;;;5164848;27;20585;-66
2021/06/10 01:45:57;;;;;;;45.63;40.93;;;20.00;85.30;;;;;;5146595;27;20215;-66
2021/06/10 01:48:25;;;;;;;45.90;40.90;;;19.90;85.50;;;;;;5166801;27;20210;-66
2021/06/10 01:50:57;;;;;;;46.33;39.23;;;19.90;85.90;;;;;;5165472;27;20218;-66
2021/06/10 01:53:25;;;;;;;45.97;41.17;;;19.90;85.90;;;;;;5161229;27;20214;-66
2021/06/10 01:55:56;;;;;;;46.93;42.33;;;19.90;85.90;;;;;;5167032;27;20218;-66
2021/06/10 01:58:23;;;;;;;45.57;40.93;;;19.80;85.80;;;;;;5166796;27;20211;-66
2021/06/10 02:00:52;;;;;;;46.20;41.40;;;19.70;85.80;;;;;;5163776;27;20206;-67
2021/06/10 02:03:21;;;;;;;45.90;41.47;;;19.70;86.00;;;;;;5164444;27;20211;-67
2021/06/10 02:05:50;;;;;;;47.07;42.50;;;19.60;86.30;;;;;;5168402;27;20207;-67
2021/06/10 02:08:19;;;;;;;46.27;41.47;;;19.60;86.50;;;;;;5166022;27;20218;-67
2021/06/10 02:10:52;;;;;;;46.60;41.93;;;19.60;86.70;;;;;;5167236;27;20215;-67
2021/06/10 02:13:22;;;;;;;45.13;40.43;;;19.60;86.90;;;;;;5160876;27;20219;-67
2021/06/10 02:15:52;;;;;;;50.27;43.80;;;19.60;86.90;;;;;;5164986;27;20616;-67
2021/06/10 02:18:19;;;;;;;51.93;44.60;;;19.60;87.10;;;;;;5167659;27;20215;-67
2021/06/10 02:20:47;;;;;;;45.77;41.03;;;19.60;87.30;;;;;;5163437;27;20269;-67
2021/06/10 02:23:14;;;;;;;48.50;42.70;;;19.50;87.30;;;;;;5167641;27;20210;-67
2021/06/10 02:25:41;;;;;;;44.37;38.63;;;19.50;87.30;;;;;;5164442;27;20218;-67
2021/06/10 02:28:08;;;;;;;45.77;40.87;;;19.50;87.30;;;;;;5164047;27;20207;-67
2021/06/10 02:30:36;;;;;;;47.47;40.03;;;19.50;87.30;;;;;;5163834;27;20660;-67
2021/06/10 02:33:03;;;;;;;44.47;40.07;;;19.50;87.20;;;;;;5164732;27;20626;-67
2021/06/10 02:35:30;;;;;;;49.03;42.23;;;19.50;87.20;;;;;;5167451;27;20228;-67
2021/06/10 02:38:00;;;;;;;45.47;40.43;;;19.50;87.20;;;;;;5159812;27;20628;-67
2021/06/10 02:40:33;;;;;;;43.90;39.60;;;19.40;87.30;;;;;;5163680;27;20222;-67
2021/06/10 02:43:03;;;;;;;44.43;39.83;;;19.40;87.40;;;;;;5161479;27;20207;-67
2021/06/10 02:45:32;;;;;;;46.30;41.23;;;19.40;87.40;;;;;;5158872;27;20633;-67
2021/06/10 02:48:01;;;;;;;47.97;43.13;;;19.50;87.60;;;;;;5146226;27;20564;-67
2021/06/10 02:50:29;;;;;;;52.93;42.57;;;19.40;87.60;;;;;;5165893;27;20241;-67
2021/06/10 02:52:58;;;;;;;43.40;38.67;;;19.50;87.60;;;;;;5165848;27;20626;-67
2021/06/10 02:55:28;;;;;;;42.80;38.47;;;19.40;87.50;;;;;;5145422;27;20244;-67
2021/06/10 02:57:57;;;;;;;46.33;41.57;;;19.40;87.40;;;;;;5139508;27;20211;-67
2021/06/10 03:00:28;;;;;;;46.57;41.80;;;19.40;87.40;;;;;;5165671;27;20226;-67
2021/06/10 03:02:56;;;;;;;45.40;40.50;;;19.40;87.70;;;;;;5144721;27;20662;-67
2021/06/10 03:05:25;;;;;;;48.53;42.80;;;19.40;87.70;;;;;;5163572;27;20199;-67
2021/06/10 03:07:53;;;;;;;46.60;41.17;;;19.50;87.80;;;;;;5160037;27;20221;-67
2021/06/10 03:10:27;;;;;;;48.60;41.17;;;19.40;87.90;;;;;;5165422;27;20305;-67
2021/06/10 03:12:57;;;;;;;42.83;38.43;;;19.40;87.60;;;;;;5164629;27;20221;-67
2021/06/10 03:15:26;;;;;;;44.77;40.07;;;19.40;87.40;;;;;;5163032;27;20632;-67
2021/06/10 03:17:54;;;;;;;45.60;41.03;;;19.40;87.60;;;;;;5166798;27;20795;-67
2021/06/10 03:20:21;;;;;;;44.70;40.00;;;19.40;87.70;;;;;;5156992;27;20227;-67
2021/06/10 03:22:49;;;;;;;44.00;39.50;;;19.40;87.60;;;;;;5165622;27;20205;-67
2021/06/10 03:25:17;;;;;;;46.40;41.83;;;19.30;87.80;;;;;;5163465;27;20279;-67
2021/06/10 03:27:46;;;;;;;43.27;38.83;;;19.30;87.90;;;;;;5161179;27;20202;-67
2021/06/10 03:30:14;;;;;;;42.17;37.83;;;19.30;88.10;;;;;;5170310;27;20278;-67
2021/06/10 03:32:41;;;;;;;42.80;38.40;;;19.40;88.10;;;;;;5148973;27;20589;-67
2021/06/10 03:35:10;;;;;;;43.37;38.83;;;19.40;88.00;;;;;;5168591;27;20228;-67
2021/06/10 03:37:38;;;;;;;44.87;39.87;;;19.40;88.00;;;;;;5170256;27;20210;-67
2021/06/10 03:40:08;;;;;;;43.77;39.37;;;19.40;88.00;;;;;;5163514;27;20245;-67
2021/06/10 03:42:36;;;;;;;45.50;40.00;;;19.40;87.90;;;;;;5169432;27;20206;-67
2021/06/10 03:45:05;;;;;;;48.57;37.93;;;19.40;88.00;;;;;;5165416;27;20310;-67
2021/06/10 03:47:33;;;;;;;42.50;38.23;;;19.50;88.10;;;;;;5170135;27;20295;-67
2021/06/10 03:50:00;;;;;;;43.70;39.17;;;19.50;87.90;;;;;;5166970;27;20237;-67
2021/06/10 03:52:28;;;;;;;41.90;37.53;;;19.40;87.80;;;;;;5169762;27;20246;-67
2021/06/10 03:54:58;;;;;;;42.10;37.80;;;19.40;87.80;;;;;;5168151;27;20214;-67
2021/06/10 03:57:24;;;;;;;42.17;37.93;;;19.40;87.80;;;;;;5168098;27;20274;-67
2021/06/10 03:59:52;;;;;;;41.20;37.07;;;19.40;87.90;;;;;;5169618;27;20245;-67
2021/06/10 04:02:19;;;;;;;40.83;36.43;;;19.40;87.90;;;;;;5165685;27;20633;-67
2021/06/10 04:04:46;;;;;;;41.87;37.90;;;19.50;88.00;;;;;;5169682;27;20216;-67
2021/06/10 04:07:13;;;;;;;39.20;35.50;;;19.50;87.90;;;;;;5167702;27;20222;-67
2021/06/10 04:09:40;;;;;;;40.37;36.20;;;19.60;87.90;;;;;;5168478;27;20225;-67
2021/06/10 04:12:08;;;;;;;40.77;36.50;;;19.60;87.60;;;;;;5168982;27;20218;-67
2021/06/10 04:14:35;;;;;;;42.70;37.57;;;19.60;87.60;;;;;;5166454;27;20214;-67
2021/06/10 04:17:03;;;;;;;40.33;36.27;;;19.60;87.60;;;;;;5166220;27;20210;-67
2021/06/10 04:19:30;;;;;;;39.53;35.37;;;19.60;87.60;;;;;;5165815;27;20218;-67
2021/06/10 04:21:56;;;;;;;38.50;34.83;;;19.70;87.80;;;;;;5167703;27;20218;-67
2021/06/10 04:24:24;;;;;;;39.37;35.47;;;19.70;87.30;;;;;;5167900;27;20207;-67
2021/06/10 04:26:51;;;;;;;38.43;34.60;;;19.80;87.00;;;;;;5168936;27;20213;-67
2021/06/10 04:29:18;;;;;;;37.47;33.70;;;19.90;86.90;;;;;;5166384;27;20207;-67
2021/06/10 04:31:44;;;;;;;38.10;34.20;;;19.90;86.80;;;;;;5161917;27;20210;-67
2021/06/10 04:34:12;;;;;;;37.80;33.50;;;20.00;86.70;;;;;;5169120;27;20221;-67
2021/06/10 04:36:39;;;;;;;36.07;32.37;;;20.10;86.60;;;;;;5167583;27;20203;-67
2021/06/10 04:39:06;;;;;;;37.97;33.23;;;20.20;86.40;;;;;;5166380;27;20214;-67
2021/06/10 04:41:33;;;;;;;35.87;32.13;;;20.30;86.10;;;;;;5168785;27;20210;-67
2021/06/10 04:44:00;;;;;;;35.83;32.20;;;20.30;85.90;;;;;;5162953;27;20283;-67
2021/06/10 04:46:27;;;;;;;36.07;32.30;;;20.40;85.80;;;;;;5160968;27;20222;-67
2021/06/10 04:48:56;;;;;;;35.43;32.00;;;20.50;85.80;;;;;;5166347;27;20219;-67
2021/06/10 04:51:25;;;;;;;36.47;32.77;;;20.60;85.80;;;;;;5167597;27;20242;-67
2021/06/10 04:53:54;;;;;;;35.90;32.20;;;20.70;85.60;;;;;;5165612;27;20210;-67
2021/06/10 04:56:22;;;;;;;35.47;31.70;;;20.80;85.30;;;;;;5165441;27;20203;-67
2021/06/10 04:58:49;;;;;;;38.27;31.37;;;21.00;85.50;;;;;;5162288;27;20207;-67
2021/06/10 05:01:17;;;;;;;35.77;32.27;;;21.20;84.40;;;;;;5165313;27;20234;-67
2021/06/10 05:03:44;;;;;;;35.43;31.63;;;21.30;83.80;;;;;;5167413;27;20631;-67
2021/06/10 05:06:11;;;;;;;34.77;31.37;;;21.50;83.40;;;;;;5167038;27;20509;-67
2021/06/10 05:08:38;;;;;;;34.20;30.70;;;21.70;82.90;;;;;;5168777;27;20210;-67
2021/06/10 05:11:05;;;;;;;32.87;29.73;;;21.90;82.50;;;;;;5165450;27;20267;-67
2021/06/10 05:13:36;;;;;;;31.97;28.87;;;22.00;82.00;;;;;;5168083;27;20282;-67
2021/06/10 05:16:04;;;;;;;31.93;28.87;;;22.10;81.60;;;;;;5150929;27;20229;-67
2021/06/10 05:18:32;;;;;;;33.10;29.97;;;22.10;81.40;;;;;;5160569;27;20211;-67
2021/06/10 05:20:59;;;;;;;33.03;29.47;;;22.20;81.70;;;;;;5168929;27;20241;-67
2021/06/10 05:23:26;;;;;;;33.27;30.07;;;22.20;81.80;;;;;;5156802;27;20199;-67
2021/06/10 05:25:53;;;;;;;31.30;28.30;;;22.30;81.70;;;;;;5168947;27;20221;-67
2021/06/10 05:28:20;;;;;;;34.03;29.23;;;22.40;81.60;;;;;;5164815;27;20211;-67
2021/06/10 05:30:47;;;;;;;31.00;27.80;;;22.40;81.30;;;;;;5167377;27;20215;-67
2021/06/10 05:33:15;;;;;;;31.17;27.93;;;22.50;81.00;;;;;;5165793;27;20211;-67
2021/06/10 05:35:42;;;;;;;31.40;28.13;;;22.60;80.70;;;;;;5168394;27;20214;-67
2021/06/10 05:38:09;;;;;;;30.67;27.67;;;22.60;80.50;;;;;;5161333;27;20207;-67
2021/06/10 05:40:36;;;;;;;30.30;27.00;;;22.70;80.20;;;;;;5160832;27;20222;-67
2021/06/10 05:43:03;;;;;;;30.53;27.47;;;22.70;80.10;;;;;;5166276;27;20267;-67
2021/06/10 05:45:30;;;;;;;30.60;27.47;;;22.80;79.90;;;;;;5166373;27;20210;-67
2021/06/10 05:47:57;;;;;;;34.20;27.07;;;22.90;79.50;;;;;;5168416;27;20258;-67
2021/06/10 05:50:24;;;;;;;30.60;27.23;;;23.00;79.30;;;;;;5166941;27;20225;-67
2021/06/10 05:52:51;;;;;;;28.20;25.30;;;23.10;79.20;;;;;;5159192;27;20242;-67
2021/06/10 05:55:18;;;;;;;29.87;26.57;;;23.30;78.70;;;;;;5165975;27;20538;-67
2021/06/10 05:57:46;;;;;;;35.53;26.97;;;23.40;78.20;;;;;;5156904;27;20207;-67
2021/06/10 06:00:15;;;;;;;29.60;26.63;;;23.60;77.70;;;;;;5163517;27;20242;-67
2021/06/10 06:02:42;;;;;;;29.00;26.40;;;23.70;77.40;;;;;;5161463;27;20211;-67
2021/06/10 06:05:09;;;;;;;27.83;25.30;;;23.80;76.90;;;;;;5163313;27;20215;-67
2021/06/10 06:07:37;;;;;;;26.87;24.37;;;23.80;76.30;;;;;;5166331;27;20647;-67
2021/06/10 06:10:07;;;;;;;26.87;24.23;;;23.90;76.10;;;;;;5163039;27;20237;-67
2021/06/10 06:12:34;;;;;;;26.77;24.27;;;24.00;75.60;;;;;;5158417;27;20565;-67
2021/06/10 06:15:02;;;;;;;27.40;24.57;;;24.10;75.50;;;;;;5163647;27;20658;-67
2021/06/10 06:17:29;;;;;;;26.47;23.63;;;24.20;75.20;;;;;;5163260;27;20210;-67
2021/06/10 06:19:59;;;;;;;26.30;23.77;;;24.30;74.90;;;;;;5162963;27;20242;-67
2021/06/10 06:22:26;;;;;;;26.37;23.67;;;24.30;74.80;;;;;;5165617;27;20207;-68
2021/06/10 06:24:53;;;;;;;27.30;24.80;;;24.40;74.80;;;;;;5167095;27;20631;-68
2021/06/10 06:27:21;;;;;;;26.03;23.47;;;24.50;74.60;;;;;;5166332;27;20210;-68
2021/06/10 06:29:48;;;;;;;27.47;24.80;;;24.60;74.10;;;;;;5162836;27;20215;-68
2021/06/10 06:32:15;;;;;;;27.70;25.00;;;24.70;73.10;;;;;;5165982;27;20213;-68
2021/06/10 06:34:41;;;;;;;27.77;25.07;;;24.70;73.30;;;;;;5164215;27;20226;-68
2021/06/10 06:37:11;;;;;;;26.83;24.33;;;24.80;73.30;;;;;;5164928;27;20214;-68
2021/06/10 06:39:38;;;;;;;26.97;24.53;;;24.90;73.40;;;;;;5161796;27;20215;-68
2021/06/10 06:42:08;;;;;;;26.93;24.17;;;25.10;73.10;;;;;;5159640;27;20214;-67
2021/06/10 06:44:35;;;;;;;27.50;24.70;;;25.20;72.70;;;;;;5159667;27;20222;-67
2021/06/10 06:47:02;;;;;;;25.10;22.90;;;25.40;72.10;;;;;;5147086;27;20220;-67
2021/06/10 06:49:29;;;;;;;27.17;24.73;;;25.60;71.40;;;;;;5164820;27;20215;-67
2021/06/10 06:51:56;;;;;;;26.83;24.17;;;25.70;70.80;;;;;;5163682;27;20269;-67
2021/06/10 06:54:23;;;;;;;24.60;22.30;;;25.90;70.30;;;;;;5166053;27;20210;-67
2021/06/10 06:56:50;;;;;;;26.40;23.57;;;26.10;69.60;;;;;;5162751;27;20555;-67
2021/06/10 06:59:17;;;;;;;24.77;22.47;;;26.30;69.20;;;;;;5166293;27;20218;-67
2021/06/10 07:01:44;;;;;;;24.07;21.90;;;26.50;67.50;;;;;;5163721;27;20686;-67
2021/06/10 07:04:11;;;;;;;31.30;22.77;;;26.60;66.70;;;;;;5165156;27;20210;-67
2021/06/10 07:06:38;;;;;;;21.43;19.40;;;26.80;66.20;;;;;;5165881;27;20589;-67
2021/06/10 07:09:05;;;;;;;22.60;20.30;;;26.80;65.50;;;;;;5163643;27;20206;-67
2021/06/10 07:11:33;;;;;;;20.37;18.37;;;26.90;64.50;;;;;;5161617;27;20206;-67
2021/06/10 07:14:02;;;;;;;20.43;18.43;;;27.00;63.70;;;;;;5163979;27;20210;-67
2021/06/10 07:16:29;;;;;;;22.53;17.83;;;26.90;62.20;;;;;;5159673;27;20207;-67
2021/06/10 07:18:57;;;;;;;19.47;17.77;;;26.80;62.50;;;;;;5164290;27;20215;-67
2021/06/10 07:21:24;;;;;;;21.40;19.30;;;26.80;61.60;;;;;;5166359;27;20222;-67
2021/06/10 07:23:51;;;;;;;20.70;18.77;;;26.70;61.10;;;;;;5162658;27;20222;-67
2021/06/10 07:26:18;;;;;;;21.53;19.57;;;26.70;62.30;;;;;;5155251;27;20210;-67
2021/06/10 07:28:45;;;;;;;26.10;20.20;;;26.70;61.70;;;;;;5165030;27;20267;-67
2021/06/10 07:31:12;;;;;;;23.97;21.43;;;26.70;62.20;;;;;;5146318;27;20215;-67
2021/06/10 07:33:39;;;;;;;22.30;19.57;;;26.80;63.00;;;;;;5144398;27;20214;-67
2021/06/10 07:36:07;;;;;;;21.07;18.83;;;26.80;62.50;;;;;;5163155;27;20210;-67
2021/06/10 07:38:33;;;;;;;20.40;18.60;;;26.70;62.40;;;;;;5166093;27;20219;-67
2021/06/10 07:41:01;;;;;;;21.80;19.53;;;26.60;62.60;;;;;;5160338;27;20231;-67
2021/06/10 07:43:27;;;;;;;20.00;17.93;;;26.50;63.40;;;;;;5165062;27;20352;-67
2021/06/10 07:45:54;;;;;;;18.10;16.23;;;26.50;63.90;;;;;;5164242;27;20222;-67
2021/06/10 07:48:21;;;;;;;17.33;15.70;;;26.50;63.50;;;;;;5163622;27;20362;-67
2021/06/10 07:50:48;;;;;;;14.47;12.90;;;26.40;64.10;;;;;;5166044;27;20803;-67
2021/06/10 07:53:16;;;;;;;11.80;10.60;;;26.40;63.30;;;;;;5162002;27;20634;-67
2021/06/10 07:55:43;;;;;;;11.63;10.50;;;26.30;63.00;;;;;;5160280;27;20214;-67
2021/06/10 07:58:10;;;;;;;15.37;10.27;;;26.20;63.30;;;;;;5164739;27;20623;-67
2021/06/10 08:00:36;;;;;;;11.40;10.30;;;26.30;63.40;;;;;;5164256;27;20238;-67
2021/06/10 08:03:04;;;;;;;13.30;9.77;;;26.30;63.50;;;;;;5161540;27;20700;-67
2021/06/10 08:05:31;;;;;;;11.00;9.90;;;26.30;63.50;;;;;;5162539;27;20214;-67
2021/06/10 08:07:58;;;;;;;10.07;9.07;;;26.40;63.60;;;;;;5161451;27;20213;-67
2021/06/10 08:10:27;;;;;;;9.93;9.03;;;26.50;63.40;;;;;;5160545;27;20210;-67
2021/06/10 08:12:54;;;;;;;11.50;8.33;;;26.60;63.70;;;;;;5164235;27;20210;-67
2021/06/10 08:15:22;;;;;;;9.17;8.27;;;26.80;63.60;;;;;;5167445;27;20236;-67
2021/06/10 08:17:49;;;;;;;8.67;7.50;;;27.10;62.20;;;;;;5163637;27;20213;-67
2021/06/10 08:20:19;;;;;;;8.37;7.53;;;27.30;62.20;;;;;;5165798;27;20210;-67
2021/06/10 08:22:46;;;;;;;10.43;7.87;;;27.60;60.90;;;;;;5166150;27;20202;-67
2021/06/10 08:25:14;;;;;;;8.93;7.97;;;27.70;60.80;;;;;;5167346;27;20215;-67
2021/06/10 08:27:41;;;;;;;8.97;8.03;;;27.70;59.60;;;;;;5167457;27;20252;-67
2021/06/10 08:30:10;;;;;;;8.67;7.77;;;27.70;59.30;;;;;;5160698;27;20202;-67
2021/06/10 08:32:37;;;;;;;9.40;7.27;;;27.50;59.40;;;;;;5148018;27;20674;-67
2021/06/10 08:35:05;;;;;;;7.63;6.93;;;27.50;60.50;;;;;;5164434;27;20219;-67
2021/06/10 08:37:34;;;;;;;13.90;7.23;;;27.50;60.70;;;;;;5167659;27;20235;-67
2021/06/10 08:40:04;;;;;;;11.83;7.47;;;27.60;60.70;;;;;;5164186;27;20214;-67
2021/06/10 08:42:36;;;;;;;11.77;7.07;;;27.60;60.40;;;;;;5170069;27;20230;-67
2021/06/10 08:45:07;;;;;;;7.57;6.70;;;27.70;61.30;;;;;;5154164;27;20234;-67
2021/06/10 08:47:38;;;;;;;8.13;6.77;;;27.80;61.20;;;;;;5169580;27;20202;-67
2021/06/10 08:50:06;;;;;;;7.53;6.77;;;28.10;61.20;;;;;;5169125;27;20221;-67
2021/06/10 08:52:34;;;;;;;10.10;6.77;;;28.30;59.60;;;;;;5161667;27;20318;-67
2021/06/10 08:55:02;;;;;;;10.50;7.60;;;28.30;60.00;;;;;;5168641;27;20214;-67
2021/06/10 08:57:30;;;;;;;8.10;7.30;;;28.40;60.50;;;;;;5165625;27;20225;-67
2021/06/10 08:59:57;;;;;;;10.17;7.50;;;28.50;59.90;;;;;;5168026;27;20647;-67
2021/06/10 09:02:24;;;;;;;9.07;6.80;;;28.60;59.70;;;;;;5165708;27;20233;-68
2021/06/10 09:04:51;;;;;;;9.93;8.00;;;28.60;59.80;;;;;;5163188;27;20206;-68
2021/06/10 09:07:35;;;;;;;8.37;7.50;;;28.70;58.40;;;;;;5168745;27;20297;-67
2021/06/10 09:10:07;;;;;;;12.40;7.80;;;28.70;58.40;;;;;;5162269;27;20215;-68
2021/06/10 09:12:50;;;;;;;12.50;8.37;;;28.70;58.30;;;;;;5168187;27;20210;-67
2021/06/10 09:15:20;;;;;;;8.13;7.43;;;28.80;58.40;;;;;;5168659;27;20218;-67
2021/06/10 09:17:48;;;;;;;12.20;7.13;;;29.10;58.10;;;;;;5162182;27;20616;-67
2021/06/10 09:20:27;;;;;;;9.77;7.93;;;29.30;57.90;;;;;;5157999;27;20218;-67
2021/06/10 09:23:23;;;;;;;7.37;6.67;;;29.60;57.30;;;;;;5161257;27;20230;-67
2021/06/10 09:26:04;;;;;;;8.23;7.47;;;29.80;57.30;;;;;;5157514;27;20230;-69
2021/06/10 09:28:34;;;;;;;9.87;6.67;;;29.90;56.50;;;;;;5168602;27;20301;-70
2021/06/10 09:31:02;;;;;;;12.77;8.83;;;30.20;56.60;;;;;;5162680;27;20271;-70
2021/06/10 09:33:39;;;;;;;9.13;6.90;;;30.60;55.60;;;;;;5167490;27;20301;-70
2021/06/10 09:36:06;;;;;;;7.97;7.13;;;30.70;55.00;;;;;;5160141;27;20211;-70
2021/06/10 09:38:33;;;;;;;11.23;7.87;;;30.80;53.50;;;;;;5155436;27;20200;-70
2021/06/10 09:41:06;;;;;;;8.70;7.80;;;30.80;53.60;;;;;;5149778;27;20217;-70
2021/06/10 09:43:46;;;;;;;8.50;7.73;;;30.80;54.10;;;;;;5167224;27;20640;-70
2021/06/10 09:46:14;;;;;;;8.83;8.00;;;30.90;53.50;;;;;;5132448;27;20298;-70
2021/06/10 09:48:41;;;;;;;12.30;8.33;;;30.90;53.80;;;;;;5166795;27;20206;-70
2021/06/10 09:51:29;;;;;;;8.20;7.40;;;30.90;54.50;;;;;;5166699;27;20219;-70
2021/06/10 09:53:55;;;;;;;8.27;6.30;;;30.90;54.30;;;;;;5165679;27;20198;-70
2021/06/10 09:56:23;;;;;;;7.50;6.73;;;31.00;54.20;;;;;;5167202;27;20210;-70
2021/06/10 09:58:55;;;;;;;8.87;7.83;;;31.10;53.90;;;;;;5168774;27;20232;-70
2021/06/10 10:01:23;;;;;;;9.63;7.90;;;31.10;52.80;;;;;;5161602;27;20553;-70
2021/06/10 10:03:51;;;;;;;11.30;7.43;;;31.20;53.00;;;;;;5166733;27;20614;-70
2021/06/10 10:06:21;;;;;;;8.07;7.27;;;31.20;53.40;;;;;;5166537;27;20207;-70
2021/06/10 10:08:54;;;;;;;11.10;7.97;;;31.40;53.60;;;;;;5164040;27;20215;-70
2021/06/10 10:11:22;;;;;;;8.43;7.73;;;31.50;52.90;;;;;;5158914;27;20202;-70
2021/06/10 10:13:53;;;;;;;7.80;7.07;;;31.70;52.80;;;;;;5166138;27;20217;-70
2021/06/10 10:16:25;;;;;;;7.43;6.70;;;31.70;52.20;;;;;;5165005;27;20214;-70
2021/06/10 10:18:54;;;;;;;8.37;7.33;;;31.80;51.90;;;;;;5162244;27;20210;-70
2021/06/10 10:21:28;;;;;;;7.83;7.20;;;31.90;52.20;;;;;;5165336;27;20317;-70
2021/06/10 10:24:00;;;;;;;8.30;6.47;;;31.90;51.10;;;;;;5165194;27;20206;-70
2021/06/10 10:26:31;;;;;;;7.63;6.03;;;31.80;50.80;;;;;;5158871;27;20258;-70
2021/06/10 10:29:02;;;;;;;12.03;7.27;;;31.80;50.60;;;;;;5165666;27;20311;-70
2021/06/10 10:31:32;;;;;;;8.60;7.67;;;31.70;50.60;;;;;;5165074;27;20230;-70
2021/06/10 10:34:00;;;;;;;7.80;7.00;;;31.80;49.80;;;;;;5167848;27;20229;-70
2021/06/10 10:36:31;;;;;;;7.87;6.87;;;31.70;50.60;;;;;;5163483;27;20215;-70
2021/06/10 10:39:08;;;;;;;6.50;5.53;;;31.80;51.00;;;;;;5165697;27;20218;-70
2021/06/10 10:41:47;;;;;;;6.07;5.10;;;32.00;50.20;;;;;;5167305;27;20229;-70
2021/06/10 10:44:21;;;;;;;6.30;5.47;;;32.20;49.20;;;;;;5167241;27;20210;-70
2021/06/10 10:47:10;;;;;;;9.77;5.13;;;32.60;49.00;;;;;;5161056;27;20742;-70
2021/06/10 10:49:48;;;;;;;6.93;6.20;;;33.10;46.80;;;;;;5163856;27;20537;-70
2021/06/10 10:52:26;;;;;;;10.73;6.27;;;33.30;46.30;;;;;;5163360;27;20238;-70
2021/06/10 10:54:53;;;;;;;7.83;6.30;;;33.10;45.10;;;;;;5163427;27;20314;-69
2021/06/10 10:57:41;;;;;;;6.00;5.40;;;32.70;46.10;;;;;;5148201;27;20221;-72
2021/06/10 11:00:13;;;;;;;5.83;5.13;;;32.50;47.30;;;;;;5159823;27;20214;-71
2021/06/10 11:02:50;;;;;;;7.77;5.90;;;32.40;46.60;;;;;;5165175;27;20234;-72
2021/06/10 11:05:30;;;;;;;5.43;5.00;;;32.20;46.40;;;;;;5166998;27;20644;-70
2021/06/10 11:07:58;;;;;;;7.20;5.33;;;32.10;48.00;;;;;;5166007;27;20211;-70
2021/06/10 11:10:39;;;;;;;9.10;6.40;;;32.20;49.20;;;;;;5164726;27;20531;-70
2021/06/10 11:13:18;;;;;;;6.83;6.10;;;32.40;49.30;;;;;;5162688;27;20211;-69
2021/06/10 11:15:48;;;;;;;8.53;5.73;;;32.60;47.60;;;;;;5162790;27;20202;-69
2021/06/10 11:18:48;;;;;;;9.20;6.57;;;32.80;47.50;;;;;;5161921;27;20209;-70
2021/06/10 11:21:40;;;;;;;5.53;5.13;;;32.90;45.90;;;;;;5145666;27;20231;-69
2021/06/10 11:24:16;;;;;;;9.57;4.83;;;32.60;45.90;;;;;;5164409;27;20218;-68
2021/06/10 11:27:03;;;;;;;5.10;4.70;;;32.00;45.90;;;;;;5160090;27;20214;-68
2021/06/10 11:29:31;;;;;;;5.17;4.70;;;31.10;47.10;;;;;;5165052;27;20551;-68
2021/06/10 11:32:18;;;;;;;4.73;4.20;;;30.60;48.30;;;;;;5162726;27;20221;-68
2021/06/10 11:34:52;;;;;;;8.40;5.17;;;30.30;48.30;;;;;;5159794;27;20238;-68
2021/06/10 11:37:21;;;;;;;5.10;4.60;;;30.30;49.20;;;;;;5165121;27;20313;-68
2021/06/10 11:39:48;;;;;;;6.20;4.93;;;30.20;49.30;;;;;;5166284;27;20213;-68
2021/06/10 11:42:15;;;;;;;5.47;4.97;;;30.20;50.40;;;;;;5162859;27;20230;-68
2021/06/10 11:44:44;;;;;;;4.60;4.30;;;30.20;50.10;;;;;;5142995;27;20196;-72
2021/06/10 11:47:21;;;;;;;7.73;5.00;;;30.10;49.40;;;;;;5160487;27;20816;-72
2021/06/10 11:49:48;;;;;;;5.60;4.77;;;30.20;49.70;;;;;;5148938;27;20537;-72
2021/06/10 11:52:17;;;;;;;7.67;5.13;;;30.40;49.80;;;;;;5170367;27;20238;-73
2021/06/10 11:55:07;;;;;;;4.67;4.20;;;30.60;50.10;;;;;;5170964;27;20224;-73
2021/06/10 11:57:34;;;;;;;6.93;4.50;;;30.70;47.60;;;;;;5164701;27;20697;-72
2021/06/10 12:00:10;;;;;;;5.67;5.17;;;30.70;46.80;;;;;;5169085;27;20541;-72
2021/06/10 12:02:41;;;;;;;5.53;5.10;;;30.60;47.40;;;;;;5170173;27;20609;-73
2021/06/10 12:05:12;;;;;;;6.23;4.80;;;30.60;47.50;;;;;;5163691;27;20255;-73
2021/06/10 12:07:39;;;;;;;7.37;4.70;;;30.60;47.50;;;;;;5169180;27;20225;-72
2021/06/10 12:10:13;;;;;;;7.40;4.33;;;30.70;48.40;;;;;;5169517;27;20206;-73
2021/06/10 12:12:48;;;;;;;4.73;3.83;;;30.90;46.50;;;;;;5163365;27;20207;-72
2021/06/10 12:15:26;;;;;;;6.07;4.47;;;31.10;46.60;;;;;;5164763;27;20271;-73
2021/06/10 12:17:54;;;;;;;5.30;4.47;;;31.10;45.20;;;;;;5163937;27;20214;-73
2021/06/10 12:20:25;;;;;;;4.63;3.80;;;31.00;46.40;;;;;;5166031;27;20297;-73
2021/06/10 12:23:00;;;;;;;9.47;4.10;;;30.90;46.00;;;;;;5169811;27;20229;-74
2021/06/10 12:25:30;;;;;;;6.07;3.97;;;30.90;46.70;;;;;;5143759;27;20210;-69
2021/06/10 12:27:59;;;;;;;4.10;3.73;;;30.80;46.30;;;;;;5165921;27;20222;-70
2021/06/10 12:30:33;;;;;;;4.17;3.83;;;30.80;48.00;;;;;;5162090;27;20207;-69
2021/06/10 12:33:30;;;;;;;8.27;3.70;;;30.70;47.50;;;;;;5166100;27;20207;-70
2021/06/10 12:35:57;;;;;;;4.50;4.10;;;30.80;48.10;;;;;;5144380;27;20214;-71
2021/06/10 12:38:31;;;;;;;4.93;4.03;;;30.70;46.80;;;;;;5169943;27;20210;-70
2021/06/10 12:41:11;;;;;;;7.97;3.73;;;30.70;47.90;;;;;;5166993;27;20206;-70
2021/06/10 12:43:38;;;;;;;5.20;3.60;;;30.60;47.80;;;;;;5164572;27;20235;-72
2021/06/10 12:46:06;;;;;;;4.77;4.10;;;30.60;48.50;;;;;;5160748;27;20213;-72
2021/06/10 12:48:59;;;;;;;6.80;3.73;;;30.50;47.50;;;;;;5162080;27;20293;-72